Marshallton, Pennsylvania
Current Conditions -  °F | °C
As of 7:53 PM on Wednesday 17 Dec 2014 (Local Time) from KSEG Reporting Station
Overcast Overcast  
Wind Chill: 31°   Ceiling: 3900
Heat Index: 38°   Visibility: 10mi
Dew Point: 23°   Wind: 9mph
Humidity: 55%   Direction: 310°NW
Pressure: 30.02"   Gusts: NA
Location:  40.7842°N, 76.5797°W
Report Text: KSEG 180053Z AUTO 31008KT 10SM OVC039 03/M05 A3002 RMK AO2 SLP170 T00331050
Loading
Personal Weather Stations






























Interactive Weather Map New forecast layout! Learn more

10-Day Weather Forecast

Advertisements
Track Severe Weather on mobile